Time;durP1;ratioP1;P1;durP2;ratioP2;P2;SDS_P1;SDS_P2;PMS_P1;PMS_P2;Temp;Humidity;BMP_temperature;BMP_pressure;BME280_temperature;BME280_humidity;BME280_pressure;Samples;Min_cycle;Max_cycle;Signal;HPM_P1;HPM_P2
2024/03/21 00:01:23;;;;;;;16.02;7.00;;;;;;;10.47;100.00;101537.69;5029017;28;20071;-75
2024/03/21 00:03:48;;;;;;;18.23;7.32;;;;;;;10.46;100.00;101543.00;5026527;28;20042;-76
2024/03/21 00:06:14;;;;;;;13.07;6.70;;;;;;;10.44;100.00;101539.72;5028964;28;20029;-76
2024/03/21 00:08:41;;;;;;;14.07;6.32;;;;;;;10.43;100.00;101535.50;5012164;28;20038;-76
2024/03/21 00:11:06;;;;;;;15.05;6.70;;;;;;;10.40;100.00;101546.16;5029178;28;20412;-76
2024/03/21 00:13:32;;;;;;;17.23;6.68;;;;;;;10.36;100.00;101543.00;5029605;28;20029;-76
2024/03/21 00:15:57;;;;;;;13.63;6.43;;;;;;;10.32;100.00;101549.41;5024531;28;20037;-76
2024/03/21 00:18:23;;;;;;;15.95;6.18;;;;;;;10.26;100.00;101547.31;5027929;28;20499;-76
2024/03/21 00:20:49;;;;;;;16.00;6.07;;;;;;;10.22;100.00;101546.78;5010749;28;20037;-76
2024/03/21 00:23:15;;;;;;;14.15;6.20;;;;;;;10.19;100.00;101552.25;5025054;28;20060;-76
2024/03/21 00:25:40;;;;;;;13.63;7.53;;;;;;;10.16;100.00;101552.50;5030020;28;20123;-76
2024/03/21 00:28:06;;;;;;;14.43;6.93;;;;;;;10.13;100.00;101548.41;5007307;28;20049;-76
2024/03/21 00:30:31;;;;;;;13.25;7.15;;;;;;;10.13;100.00;101552.75;5026056;28;20025;-76
2024/03/21 00:32:56;;;;;;;15.48;6.93;;;;;;;10.12;100.00;101557.13;5027250;28;20042;-76
2024/03/21 00:35:22;;;;;;;17.60;7.07;;;;;;;10.11;100.00;101565.88;5006908;28;20667;-76
2024/03/21 00:37:47;;;;;;;15.25;7.03;;;;;;;10.08;100.00;101558.34;5023049;28;20072;-76
2024/03/21 00:40:13;;;;;;;16.02;6.40;;;;;;;10.06;100.00;101567.22;5027274;28;20041;-75
2024/03/21 00:42:42;;;;;;;16.80;8.75;;;;;;;10.02;100.00;101564.09;5024649;28;20041;-76
2024/03/21 00:45:08;;;;;;;16.45;8.38;;;;;;;10.03;100.00;101562.31;5041358;28;20045;-75
2024/03/21 00:47:34;;;;;;;18.90;9.18;;;;;;;10.03;100.00;101572.66;5053352;28;20100;-75
2024/03/21 00:49:59;;;;;;;20.88;9.75;;;;;;;10.02;100.00;101569.28;5024081;28;20045;-76
2024/03/21 00:52:24;;;;;;;16.65;9.05;;;;;;;9.98;100.00;101573.06;5026562;28;20041;-76
2024/03/21 00:54:50;;;;;;;18.60;9.77;;;;;;;9.93;100.00;101573.47;5025581;28;20559;-76
2024/03/21 00:57:16;;;;;;;19.05;9.30;;;;;;;9.91;100.00;101572.78;5027796;28;20475;-76
2024/03/21 00:59:46;;;;;;;17.33;9.35;;;;;;;9.91;100.00;101583.16;5030636;28;20128;-76
2024/03/21 01:02:13;;;;;;;19.70;10.77;;;;;;;9.87;100.00;101581.78;5025282;28;20377;-76
2024/03/21 01:04:39;;;;;;;19.75;9.55;;;;;;;9.82;100.00;101589.13;5029398;28;20079;-76
2024/03/21 01:07:04;;;;;;;17.45;9.00;;;;;;;9.84;100.00;101589.00;5027266;28;20420;-75
2024/03/21 01:09:30;;;;;;;19.88;9.00;;;;;;;9.85;100.00;101577.66;5024104;28;20033;-76
2024/03/21 01:11:58;;;;;;;16.90;9.43;;;;;;;9.84;100.00;101581.22;5028043;28;20480;-76
2024/03/21 01:14:23;;;;;;;16.02;8.63;;;;;;;9.82;100.00;101586.53;5028868;28;20645;-76
2024/03/21 01:16:49;;;;;;;22.00;9.75;;;;;;;9.83;100.00;101588.19;5025224;28;20037;-75
2024/03/21 01:19:14;;;;;;;21.38;10.05;;;;;;;9.81;100.00;101587.47;5025448;28;20102;-76
2024/03/21 01:21:40;;;;;;;20.65;11.05;;;;;;;9.79;100.00;101589.38;5024997;28;20541;-76
2024/03/21 01:24:05;;;;;;;22.92;11.55;;;;;;;9.76;100.00;101594.81;5027281;28;20021;-76
2024/03/21 01:26:31;;;;;;;22.63;11.18;;;;;;;9.74;100.00;101594.13;5029259;28;20087;-76
2024/03/21 01:28:56;;;;;;;21.40;10.55;;;;;;;9.72;100.00;101596.03;5026887;28;20029;-76
2024/03/21 01:31:21;;;;;;;23.30;10.10;;;;;;;9.69;100.00;101597.09;5028576;28;20034;-76
2024/03/21 01:33:49;;;;;;;21.55;10.05;;;;;;;9.69;100.00;101599.69;5026072;28;20053;-76
2024/03/21 01:36:14;;;;;;;29.10;12.25;;;;;;;9.72;100.00;101602.03;5004622;28;20571;-74
2024/03/21 01:38:40;;;;;;;36.33;16.45;;;;;;;9.78;100.00;101608.47;5031495;28;20034;-75
2024/03/21 01:41:06;;;;;;;37.03;19.92;;;;;;;9.90;100.00;101604.00;5026416;28;20546;-76
2024/03/21 01:43:32;;;;;;;42.95;23.25;;;;;;;10.00;100.00;101599.69;5025311;28;20037;-76
2024/03/21 01:46:31;;;;;;;39.35;23.10;;;;;;;9.93;100.00;101604.56;5028621;28;20033;-76
2024/03/21 01:48:56;;;;;;;41.85;22.95;;;;;;;9.92;100.00;101610.66;4958295;28;20461;-76
2024/03/21 01:51:24;;;;;;;37.30;22.58;;;;;;;9.90;100.00;101611.78;5028238;28;20044;-76
2024/03/21 01:53:51;;;;;;;47.78;25.58;;;;;;;9.84;100.00;101615.69;5029396;28;20029;-75
2024/03/21 01:56:17;;;;;;;49.88;28.73;;;;;;;9.85;100.00;101622.53;5026692;28;20061;-75
2024/03/21 01:58:43;;;;;;;50.22;28.20;;;;;;;9.91;100.00;101610.81;5022832;28;20072;-75
2024/03/21 02:01:28;;;;;;;56.33;30.05;;;;;;;9.97;100.00;101606.91;5028344;28;20072;-76
2024/03/21 02:03:59;;;;;;;56.97;31.25;;;;;;;10.00;100.00;101614.38;5023886;28;20116;-75
2024/03/21 02:06:26;;;;;;;57.40;30.80;;;;;;;9.98;100.00;101616.28;5024394;28;20438;-76
2024/03/21 02:08:53;;;;;;;58.10;30.27;;;;;;;9.94;100.00;101613.13;5022477;28;20079;-76
2024/03/21 02:11:19;;;;;;;53.45;29.90;;;;;;;10.09;100.00;101618.78;5027962;28;20037;-76
2024/03/21 02:13:46;;;;;;;60.35;31.02;;;;;;;10.12;100.00;101624.50;5022024;28;20033;-75
2024/03/21 02:16:12;;;;;;;54.00;31.10;;;;;;;10.08;100.00;101619.75;5026531;28;20384;-77
2024/03/21 02:18:38;;;;;;;59.55;33.38;;;;;;;10.02;100.00;101617.66;5025373;28;20073;-76
2024/03/21 02:21:06;;;;;;;57.25;33.25;;;;;;;10.03;100.00;101624.50;5056094;28;20064;-76
2024/03/21 02:23:32;;;;;;;49.78;31.15;;;;;;;9.95;100.00;101617.38;5021963;28;20025;-76
2024/03/21 02:25:58;;;;;;;65.63;33.70;;;;;;;9.90;100.00;101611.78;5013971;28;20388;-76
2024/03/21 02:28:27;;;;;;;56.42;31.88;;;;;;;9.88;100.00;101613.66;5027851;28;20602;-76
2024/03/21 02:30:54;;;;;;;56.53;32.33;;;;;;;9.88;100.00;101611.09;5024820;28;20083;-76
2024/03/21 02:33:19;;;;;;;55.22;31.23;;;;;;;9.84;100.00;101610.53;5027600;28;20032;-76
2024/03/21 02:35:45;;;;;;;50.78;29.83;;;;;;;9.84;100.00;101615.69;5028888;28;20029;-76
2024/03/21 02:38:11;;;;;;;51.40;27.38;;;;;;;10.05;100.00;101613.03;5057032;28;20949;-77
2024/03/21 02:40:36;;;;;;;51.90;28.30;;;;;;;9.94;100.00;101613.13;5029314;28;20051;-77
2024/03/21 02:43:02;;;;;;;54.33;29.98;;;;;;;9.87;100.00;101607.69;5030061;28;20040;-76
2024/03/21 02:45:27;;;;;;;55.92;31.55;;;;;;;9.85;100.00;101614.75;5028206;28;20029;-76
2024/03/21 02:47:53;;;;;;;60.15;32.25;;;;;;;9.92;100.00;101617.63;5057760;28;20026;-77
2024/03/21 02:50:18;;;;;;;49.33;28.67;;;;;;;9.94;100.00;101621.75;5027804;28;20048;-76
2024/03/21 02:52:44;;;;;;;56.58;30.27;;;;;;;9.87;100.00;101619.78;5029180;28;20095;-76
2024/03/21 02:55:09;;;;;;;59.97;30.05;;;;;;;9.79;100.00;101619.63;5036077;28;20028;-76
2024/03/21 02:57:34;;;;;;;55.42;29.08;;;;;;;9.73;100.00;101618.38;5027115;28;20045;-76
2024/03/21 03:00:00;;;;;;;55.13;32.63;;;;;;;9.71;100.00;101615.09;5028187;28;20034;-76
2024/03/21 03:02:26;;;;;;;56.88;31.48;;;;;;;9.71;100.00;101617.69;5031883;28;20025;-75
2024/03/21 03:04:51;;;;;;;58.97;31.00;;;;;;;9.68;100.00;101616.19;5028734;28;20435;-77
2024/03/21 03:07:17;;;;;;;61.65;31.15;;;;;;;9.65;100.00;101628.59;5028618;28;20034;-77
2024/03/21 03:09:42;;;;;;;49.10;27.08;;;;;;;9.68;100.00;101638.66;5026598;28;20045;-76
2024/03/21 03:12:08;;;;;;;43.95;24.80;;;;;;;9.53;100.00;101638.19;5028661;28;20037;-76
2024/03/21 03:14:33;;;;;;;41.40;24.48;;;;;;;9.50;100.00;101639.28;5014893;28;20167;-77
2024/03/21 03:16:59;;;;;;;59.22;31.77;;;;;;;9.50;100.00;101641.88;5029805;28;20037;-76
2024/03/21 03:19:24;;;;;;;55.42;29.55;;;;;;;9.52;100.00;101642.56;5028134;28;20396;-76
2024/03/21 03:21:49;;;;;;;55.63;30.48;;;;;;;9.51;100.00;101637.50;5011294;28;20041;-76
2024/03/21 03:24:15;;;;;;;61.92;29.10;;;;;;;9.49;100.00;101635.06;5029291;28;20029;-76
2024/03/21 03:26:40;;;;;;;51.22;28.15;;;;;;;9.49;100.00;101636.81;5026156;28;20033;-75
2024/03/21 03:29:06;;;;;;;53.50;29.95;;;;;;;9.47;100.00;101634.34;5029760;28;20030;-76
2024/03/21 03:31:31;;;;;;;56.50;30.30;;;;;;;9.50;100.00;101646.22;5027538;28;20025;-77
2024/03/21 03:36:41;;;;;;;54.58;27.50;;;;;;;9.45;100.00;101662.13;5042173;28;20463;-76
2024/03/21 03:39:06;;;;;;;61.05;33.20;;;;;;;9.47;100.00;101660.22;5030318;28;20037;-76
2024/03/21 03:41:32;;;;;;;65.10;32.55;;;;;;;9.50;100.00;101672.13;5029033;28;20037;-76
2024/03/21 03:43:58;;;;;;;64.00;33.63;;;;;;;9.52;100.00;101665.84;5029512;28;20042;-77
2024/03/21 03:46:23;;;;;;;62.17;32.15;;;;;;;9.52;100.00;101667.63;5015663;28;20021;-76
2024/03/21 03:48:49;;;;;;;58.90;32.58;;;;;;;9.52;100.00;101655.50;5027989;28;20088;-76
2024/03/21 03:51:14;;;;;;;62.53;32.88;;;;;;;9.52;100.00;101660.69;5030696;28;20033;-77
2024/03/21 03:53:40;;;;;;;65.35;33.85;;;;;;;9.52;100.00;101659.88;5027704;28;20029;-76
2024/03/21 03:56:06;;;;;;;66.20;34.50;;;;;;;9.55;100.00;101663.03;5028251;28;20037;-76
2024/03/21 03:58:31;;;;;;;63.15;33.95;;;;;;;9.60;100.00;101672.97;5022098;28;20041;-76
2024/03/21 04:00:58;;;;;;;72.55;35.85;;;;;;;9.63;100.00;101671.91;5027887;28;20037;-76
2024/03/21 04:03:25;;;;;;;64.80;33.53;;;;;;;9.68;100.00;101670.59;5029202;28;20034;-76
2024/03/21 04:06:03;;;;;;;65.05;35.72;;;;;;;9.65;100.00;101681.19;5028898;28;20043;-76
2024/03/21 04:08:28;;;;;;;66.90;34.33;;;;;;;9.62;100.00;101681.44;5045655;28;20037;-76
2024/03/21 04:10:58;;;;;;;68.50;35.60;;;;;;;9.66;100.00;101682.84;5025034;28;20400;-77
2024/03/21 04:13:23;;;;;;;70.80;36.90;;;;;;;9.71;100.00;101682.44;5024579;28;21256;-77
2024/03/21 04:15:56;;;;;;;71.63;35.40;;;;;;;9.69;100.00;101698.09;5027605;28;20037;-76
2024/03/21 04:18:23;;;;;;;76.40;36.78;;;;;;;9.76;100.00;101701.03;5025743;28;20034;-74
2024/03/21 04:20:51;;;;;;;70.05;35.67;;;;;;;9.75;100.00;101702.75;5027799;28;20037;-75
2024/03/21 04:23:17;;;;;;;74.72;37.92;;;;;;;9.70;100.00;101711.88;5025838;28;20077;-75
2024/03/21 04:25:42;;;;;;;74.88;35.63;;;;;;;9.76;100.00;101716.56;5028887;28;20500;-75
2024/03/21 04:28:08;;;;;;;74.47;37.90;;;;;;;9.83;100.00;101727.22;5026205;28;20030;-75
2024/03/21 04:30:33;;;;;;;69.07;37.00;;;;;;;9.91;100.00;101732.59;5029107;28;20075;-75
2024/03/21 04:32:59;;;;;;;73.68;37.38;;;;;;;10.05;100.00;101734.81;5027228;28;20034;-75
2024/03/21 04:35:24;;;;;;;72.05;36.28;;;;;;;9.96;100.00;101727.81;5026382;28;20025;-75
2024/03/21 04:37:50;;;;;;;74.05;36.53;;;;;;;9.91;100.00;101735.19;5025822;28;20955;-75
2024/03/21 04:40:15;;;;;;;79.00;36.67;;;;;;;9.95;100.00;101744.34;5026954;28;20079;-75
2024/03/21 04:42:41;;;;;;;72.25;34.55;;;;;;;9.93;100.00;101752.22;5024157;28;20025;-75
2024/03/21 04:45:07;;;;;;;76.85;34.63;;;;;;;9.88;100.00;101741.41;5026499;28;20049;-76
2024/03/21 04:47:33;;;;;;;73.65;33.92;;;;;;;9.94;100.00;101751.28;5026041;28;20032;-78
2024/03/21 04:49:58;;;;;;;64.53;31.02;;;;;;;10.02;100.00;101757.56;5029521;28;20025;-76
2024/03/21 04:52:25;;;;;;;60.40;29.70;;;;;;;9.96;100.00;101751.13;5027044;28;20083;-76
2024/03/21 04:54:51;;;;;;;63.15;29.77;;;;;;;9.97;100.00;101755.38;5025923;28;20083;-76
2024/03/21 04:57:16;;;;;;;60.22;29.67;;;;;;;9.82;100.00;101744.53;5010647;28;20120;-76
2024/03/21 04:59:42;;;;;;;66.05;30.63;;;;;;;9.84;100.00;101752.19;5027235;28;20508;-76
2024/03/21 05:02:07;;;;;;;61.08;30.08;;;;;;;9.69;100.00;101752.50;5026278;28;20132;-75
2024/03/21 05:04:33;;;;;;;68.63;30.85;;;;;;;9.65;100.00;101750.31;5026273;28;20029;-75
2024/03/21 05:06:58;;;;;;;66.75;31.40;;;;;;;9.57;100.00;101755.28;5025677;28;20535;-75
2024/03/21 05:09:24;;;;;;;57.45;28.73;;;;;;;9.52;100.00;101761.66;5026519;28;20029;-75
2024/03/21 05:11:49;;;;;;;62.10;30.08;;;;;;;9.50;100.00;101775.69;5028108;28;20033;-76
2024/03/21 05:14:14;;;;;;;58.20;29.90;;;;;;;9.53;100.00;101778.84;5027423;28;20025;-75
2024/03/21 05:16:40;;;;;;;62.25;28.65;;;;;;;9.58;100.00;101782.81;5024491;28;20029;-76
2024/03/21 05:19:05;;;;;;;59.20;29.30;;;;;;;9.46;100.00;101787.25;5022537;28;20034;-75
2024/03/21 05:21:31;;;;;;;53.92;28.25;;;;;;;9.46;100.00;101785.47;5024164;28;20021;-74
2024/03/21 05:23:57;;;;;;;59.10;29.75;;;;;;;9.45;100.00;101791.56;5026870;28;20471;-75
2024/03/21 05:26:23;;;;;;;60.55;28.92;;;;;;;9.42;100.00;101791.00;5007974;28;20598;-75
2024/03/21 05:28:49;;;;;;;60.00;28.02;;;;;;;9.39;100.00;101789.50;5023504;28;20034;-75
2024/03/21 05:31:25;;;;;;;64.57;28.02;;;;;;;9.32;100.00;101790.91;5027802;28;20037;-76
2024/03/21 05:33:50;;;;;;;57.45;27.92;;;;;;;9.35;100.00;101801.03;5056234;28;20123;-75
2024/03/21 05:36:16;;;;;;;54.22;28.10;;;;;;;9.37;100.00;101809.50;5024792;28;20365;-76
2024/03/21 05:38:44;;;;;;;60.35;27.15;;;;;;;9.34;100.00;101799.38;5026426;28;20125;-76
2024/03/21 05:41:10;;;;;;;54.88;25.50;;;;;;;9.25;100.00;101806.13;5024833;28;20025;-75
2024/03/21 05:43:35;;;;;;;56.42;27.50;;;;;;;9.29;100.00;101810.13;5025363;28;20134;-75
2024/03/21 05:46:01;;;;;;;59.42;26.33;;;;;;;9.29;100.00;101814.47;5026727;28;20488;-75
2024/03/21 05:48:26;;;;;;;56.05;27.30;;;;;;;9.38;100.00;101815.50;5027138;28;20041;-75
2024/03/21 05:50:52;;;;;;;56.47;26.60;;;;;;;9.41;100.00;101823.84;5024349;28;20029;-74
2024/03/21 05:53:17;;;;;;;52.22;27.40;;;;;;;9.38;100.00;101820.66;5024676;28;20030;-75
2024/03/21 05:55:53;;;;;;;61.25;28.90;;;;;;;9.33;100.00;101834.00;5008131;28;20388;-76
2024/03/21 05:58:18;;;;;;;64.13;28.60;;;;;;;9.33;100.00;101845.16;5008065;28;20045;-76
2024/03/21 06:00:44;;;;;;;56.63;28.40;;;;;;;9.35;100.00;101845.03;5028747;28;20033;-76
2024/03/21 06:03:09;;;;;;;61.75;29.08;;;;;;;9.34;100.00;101856.31;5026404;28;20083;-76
2024/03/21 06:05:36;;;;;;;64.25;30.13;;;;;;;9.49;100.00;101855.13;5027143;28;20063;-75
2024/03/21 06:08:02;;;;;;;64.85;31.20;;;;;;;9.46;100.00;101860.53;5024279;28;20040;-75
2024/03/21 06:10:27;;;;;;;60.15;28.27;;;;;;;9.49;100.00;101851.69;5024056;28;20030;-75
2024/03/21 06:12:53;;;;;;;59.15;28.10;;;;;;;9.55;100.00;101854.63;5024719;28;20029;-75
2024/03/21 06:15:19;;;;;;;65.72;29.70;;;;;;;9.65;100.00;101857.28;5026603;28;20029;-75
2024/03/21 06:17:44;;;;;;;62.05;27.48;;;;;;;9.60;100.00;101861.19;5027048;28;20535;-75
2024/03/21 06:20:10;;;;;;;63.15;29.77;;;;;;;9.71;100.00;101867.16;5023351;28;20033;-75
2024/03/21 06:22:41;;;;;;;65.85;29.55;;;;;;;9.67;100.00;101870.13;5024490;28;21311;-75
2024/03/21 06:25:07;;;;;;;56.58;27.55;;;;;;;9.78;100.00;101877.03;5025050;28;20520;-75
2024/03/21 06:27:33;;;;;;;58.03;28.77;;;;;;;9.72;100.00;101871.41;5020556;28;20490;-75
2024/03/21 06:29:58;;;;;;;57.75;29.40;;;;;;;9.68;100.00;101869.16;5025954;28;20044;-75
2024/03/21 06:32:24;;;;;;;64.75;30.55;;;;;;;9.66;100.00;101876.22;5026033;28;20500;-75
2024/03/21 06:34:49;;;;;;;65.97;30.67;;;;;;;9.83;100.00;101880.91;5026752;28;20492;-75
2024/03/21 06:37:15;;;;;;;61.55;31.08;;;;;;;9.83;100.00;101880.91;5020620;28;20845;-75
2024/03/21 06:39:40;;;;;;;63.53;31.08;;;;;;;9.78;100.00;101880.44;5029340;28;20040;-75
2024/03/21 06:42:06;;;;;;;64.35;29.98;;;;;;;9.83;100.00;101887.81;5007095;28;20046;-75
2024/03/21 06:44:32;;;;;;;70.30;32.67;;;;;;;9.73;100.00;101896.34;5023319;28;20033;-76
2024/03/21 06:46:57;;;;;;;69.47;32.50;;;;;;;9.76;100.00;101900.47;5008833;28;20049;-76
2024/03/21 06:49:22;;;;;;;68.53;32.80;;;;;;;9.79;100.00;101904.56;5027080;28;20040;-75
2024/03/21 06:51:48;;;;;;;59.38;31.05;;;;;;;9.80;100.00;101906.22;5021213;28;20029;-76
2024/03/21 06:54:13;;;;;;;70.82;32.38;;;;;;;9.72;100.00;101910.25;5024664;28;20037;-75
2024/03/21 06:56:39;;;;;;;63.28;31.98;;;;;;;9.72;100.00;101910.25;5025013;28;20136;-75
2024/03/21 06:59:04;;;;;;;65.30;33.67;;;;;;;9.76;100.00;101918.59;5023630;28;20426;-76
2024/03/21 07:01:30;;;;;;;69.57;33.10;;;;;;;9.78;100.00;101924.47;5024093;28;20115;-75
2024/03/21 07:03:55;;;;;;;63.75;32.13;;;;;;;9.69;100.00;101926.03;5036276;28;20056;-76
2024/03/21 07:06:21;;;;;;;63.10;32.03;;;;;;;9.64;100.00;101927.34;5023516;28;20048;-76
2024/03/21 07:08:46;;;;;;;68.63;31.25;;;;;;;9.75;100.00;101927.28;5024920;28;20034;-74
2024/03/21 07:11:12;;;;;;;64.05;31.13;;;;;;;9.72;100.00;101937.94;5024841;28;20076;-75
2024/03/21 07:13:38;;;;;;;62.20;30.30;;;;;;;9.60;100.00;101938.88;5022195;28;20103;-75
2024/03/21 07:16:04;;;;;;;67.38;31.15;;;;;;;9.67;100.00;101943.44;5025441;28;20555;-76
2024/03/21 07:18:30;;;;;;;58.47;31.42;;;;;;;9.71;100.00;101947.44;5022975;28;20742;-76
2024/03/21 07:20:56;;;;;;;67.38;31.48;;;;;;;9.79;100.00;101953.78;5023282;28;20079;-75
2024/03/21 07:23:22;;;;;;;54.97;29.05;;;;;;;9.92;100.00;101957.03;5025409;28;20029;-75
2024/03/21 07:25:47;;;;;;;66.85;31.67;;;;;;;9.85;100.00;101958.47;5030244;28;20038;-74
2024/03/21 07:28:12;;;;;;;60.45;30.88;;;;;;;9.94;100.00;101957.72;5027071;28;20037;-76
2024/03/21 07:30:38;;;;;;;62.50;31.98;;;;;;;10.16;100.00;101956.81;5027486;28;20033;-74
2024/03/21 07:33:04;;;;;;;58.75;30.55;;;;;;;10.38;100.00;101953.34;5025954;28;20038;-74
2024/03/21 07:35:30;;;;;;;59.95;29.60;;;;;;;10.33;100.00;101964.06;5026601;28;20484;-74
2024/03/21 07:37:55;;;;;;;68.30;29.65;;;;;;;10.44;100.00;101964.97;5025501;28;20040;-74
2024/03/21 07:40:21;;;;;;;52.97;29.15;;;;;;;10.23;100.00;101975.31;5030260;28;20399;-74
2024/03/21 07:42:47;;;;;;;55.78;28.70;;;;;;;10.22;100.00;101987.41;5028368;28;20099;-75
2024/03/21 07:45:12;;;;;;;63.80;32.38;;;;;;;10.26;100.00;101978.44;5023368;28;20115;-74
2024/03/21 07:47:40;;;;;;;50.65;28.17;;;;;;;10.29;100.00;101993.75;5025645;28;20037;-74
2024/03/21 07:50:05;;;;;;;45.53;24.42;;;;;;;10.18;100.00;101983.44;5028333;28;20041;-74
2024/03/21 07:52:31;;;;;;;46.67;25.40;;;;;;;10.19;100.00;101989.44;5029394;28;20729;-74
2024/03/21 07:54:56;;;;;;;48.00;23.48;;;;;;;10.18;100.00;101993.00;5029269;28;20034;-73
2024/03/21 07:57:22;;;;;;;47.95;24.00;;;;;;;10.37;100.00;101993.16;5022074;28;20554;-75
2024/03/21 07:59:47;;;;;;;37.65;20.65;;;;;;;10.18;100.00;102001.56;5027446;28;20029;-74
2024/03/21 08:02:14;;;;;;;42.70;22.23;;;;;;;10.08;100.00;102003.28;5024401;28;20045;-73
2024/03/21 08:04:39;;;;;;;40.80;21.33;;;;;;;10.21;100.00;102021.22;5027165;28;20033;-74
2024/03/21 08:07:05;;;;;;;40.47;21.38;;;;;;;10.12;100.00;102020.22;5027005;28;20041;-74
2024/03/21 08:09:30;;;;;;;40.90;18.10;;;;;;;10.21;100.00;102024.66;5011062;28;20029;-74
2024/03/21 08:11:56;;;;;;;34.53;17.10;;;;;;;10.21;100.00;102022.09;5024092;28;20036;-74
2024/03/21 08:14:22;;;;;;;23.10;14.30;;;;;;;10.18;100.00;102021.50;5008733;28;20037;-74
2024/03/21 08:16:47;;;;;;;28.95;14.73;;;;;;;10.05;100.00;102017.28;5026422;28;20029;-74
2024/03/21 08:19:13;;;;;;;27.52;15.38;;;;;;;10.06;100.00;102023.31;5028764;28;20488;-74
2024/03/21 08:21:38;;;;;;;27.38;14.38;;;;;;;10.01;100.00;102028.03;5022529;28;20036;-74
2024/03/21 08:24:05;;;;;;;26.65;13.35;;;;;;;10.04;100.00;102032.94;5026055;28;20030;-74
2024/03/21 08:26:30;;;;;;;26.55;13.93;;;;;;;10.16;100.00;102044.94;5027453;28;20533;-75
2024/03/21 08:28:56;;;;;;;26.60;15.32;;;;;;;10.31;100.00;102046.34;5025046;28;20030;-74
2024/03/21 08:31:21;;;;;;;20.77;12.65;;;;;;;10.45;100.00;102053.00;5027941;28;20072;-74
2024/03/21 08:33:47;;;;;;;19.77;12.10;;;;;;;10.41;100.00;102056.78;5028077;28;20440;-74
2024/03/21 08:36:13;;;;;;;23.10;12.50;;;;;;;10.49;100.00;102063.94;5027559;28;20041;-74
2024/03/21 08:38:38;;;;;;;19.50;11.55;;;;;;;10.58;100.00;102068.38;5041322;28;20038;-74
2024/03/21 08:41:04;;;;;;;19.95;10.85;;;;;;;10.37;100.00;102070.94;5025337;28;20524;-73
2024/03/21 08:43:30;;;;;;;15.75;9.40;;;;;;;10.46;100.00;102069.38;5026594;28;20041;-74
2024/03/21 08:45:55;;;;;;;19.17;9.20;;;;;;;10.58;100.00;102070.16;5026559;28;20090;-74
2024/03/21 08:48:20;;;;;;;16.30;9.88;;;;;;;10.52;100.00;102079.25;5025949;28;20442;-74
2024/03/21 08:50:47;;;;;;;13.95;7.80;;;;;;;10.80;100.00;102085.59;5024803;28;20095;-74
2024/03/21 08:53:16;;;;;;;11.23;7.53;;;;;;;10.98;100.00;102085.88;5028698;28;20033;-74
2024/03/21 08:55:42;;;;;;;15.07;7.80;;;;;;;10.96;99.43;102085.16;5029276;28;20549;-77
2024/03/21 08:58:07;;;;;;;14.57;7.63;;;;;;;11.18;98.16;102085.97;5028834;28;20045;-76
2024/03/21 09:00:33;;;;;;;10.25;6.93;;;;;;;11.17;95.69;102082.56;5028534;28;20044;-75
2024/03/21 09:02:59;;;;;;;13.25;7.13;;;;;;;11.18;96.35;102088.56;5027734;28;20034;-75
2024/03/21 09:05:25;;;;;;;13.43;6.72;;;;;;;11.29;96.77;102094.50;5027484;28;20079;-76
2024/03/21 09:07:50;;;;;;;15.02;6.53;;;;;;;11.30;96.83;102090.97;5026910;28;20041;-76
2024/03/21 09:10:16;;;;;;;9.85;5.93;;;;;;;11.29;96.95;102091.09;5023293;28;20032;-76
2024/03/21 09:12:42;;;;;;;11.07;6.38;;;;;;;11.22;97.17;102097.75;5026595;28;20041;-75
2024/03/21 09:15:10;;;;;;;7.35;4.88;;;;;;;11.07;95.08;102092.88;5025952;28;20026;-73
2024/03/21 09:17:36;;;;;;;8.23;5.47;;;;;;;11.01;94.96;102101.19;5053682;28;20079;-74
2024/03/21 09:20:02;;;;;;;8.55;4.60;;;;;;;11.01;95.43;102095.16;5021235;28;20499;-73
2024/03/21 09:22:27;;;;;;;5.30;4.22;;;;;;;10.94;96.50;102089.66;5022467;28;20038;-73
2024/03/21 09:24:53;;;;;;;8.88;4.60;;;;;;;11.03;95.97;102093.28;5025254;28;20100;-75
2024/03/21 09:27:18;;;;;;;6.88;4.25;;;;;;;11.01;94.50;102087.38;5024949;28;20045;-75
2024/03/21 09:29:45;;;;;;;11.00;5.22;;;;;;;10.98;93.19;102098.84;5027469;28;20023;-75
2024/03/21 09:32:11;;;;;;;9.70;4.85;;;;;;;10.99;94.21;102110.03;5027957;28;20163;-75
2024/03/21 09:34:36;;;;;;;7.22;4.63;;;;;;;11.16;95.32;102103.47;5026411;28;20025;-76
2024/03/21 09:37:02;;;;;;;7.18;4.45;;;;;;;10.98;93.86;102108.38;5031355;28;20041;-75
2024/03/21 09:39:27;;;;;;;9.20;4.72;;;;;;;11.06;94.44;102112.00;5029272;28;20377;-75
2024/03/21 09:41:53;;;;;;;5.75;4.18;;;;;;;11.07;94.20;102105.84;5050324;28;20089;-76
2024/03/21 09:44:20;;;;;;;6.55;4.82;;;;;;;11.16;93.86;102109.47;5027108;28;20484;-76
2024/03/21 09:46:47;;;;;;;7.40;4.88;;;;;;;11.08;93.65;102110.09;5024647;28;20480;-75
2024/03/21 09:49:13;;;;;;;7.40;4.60;;;;;;;11.20;93.90;102116.03;5022265;28;20030;-75
2024/03/21 09:51:40;;;;;;;9.55;4.63;;;;;;;11.28;94.55;102118.84;5026366;28;20037;-75
2024/03/21 09:54:12;;;;;;;8.73;5.57;;;;;;;11.48;94.52;102129.31;5025642;28;20120;-75
2024/03/21 09:56:37;;;;;;;6.43;5.32;;;;;;;11.50;94.17;102122.22;5023637;28;20045;-75
2024/03/21 09:59:12;;;;;;;10.40;5.88;;;;;;;11.49;93.16;102124.00;5026919;28;20033;-76
2024/03/21 10:01:37;;;;;;;9.23;6.60;;;;;;;11.46;94.35;102129.44;5021048;28;20044;-75
2024/03/21 10:04:03;;;;;;;11.68;6.63;;;;;;;11.57;93.14;102125.94;5025735;28;20029;-76
2024/03/21 10:06:28;;;;;;;9.57;6.63;;;;;;;11.25;91.49;102126.06;5025795;28;20627;-76
2024/03/21 10:08:56;;;;;;;10.73;7.40;;;;;;;11.46;92.78;102134.63;5038898;28;20026;-76
2024/03/21 10:11:22;;;;;;;14.15;8.38;;;;;;;11.21;93.14;102133.28;5028096;28;20029;-74
2024/03/21 10:13:47;;;;;;;13.90;7.57;;;;;;;11.24;93.75;102145.16;5057232;28;20522;-74
2024/03/21 10:16:14;;;;;;;11.73;8.10;;;;;;;11.50;93.10;102140.41;5028232;28;20033;-74
2024/03/21 10:18:44;;;;;;;13.00;8.43;;;;;;;11.39;92.06;102143.88;5008785;28;20034;-74
2024/03/21 10:21:22;;;;;;;11.73;8.43;;;;;;;11.40;93.00;102145.56;5022346;28;20040;-73
2024/03/21 10:23:48;;;;;;;15.32;8.27;;;;;;;11.58;91.56;102150.13;5021503;28;20064;-74
2024/03/21 10:26:15;;;;;;;11.48;7.88;;;;;;;11.56;88.92;102152.84;5025327;28;20061;-75
2024/03/21 10:28:45;;;;;;;12.35;8.45;;;;;;;11.52;89.15;102148.88;5023936;28;20049;-74
2024/03/21 10:31:15;;;;;;;13.68;9.43;;;;;;;11.58;88.48;102158.75;5021945;28;20034;-74
2024/03/21 10:33:43;;;;;;;13.20;8.63;;;;;;;11.62;87.13;102152.38;5009565;28;20033;-74
2024/03/21 10:36:12;;;;;;;11.93;8.43;;;;;;;11.58;86.65;102161.34;5025893;28;20029;-74
2024/03/21 10:38:38;;;;;;;12.23;8.25;;;;;;;11.65;86.15;102162.47;5024599;28;20042;-74
2024/03/21 10:41:11;;;;;;;12.23;8.73;;;;;;;11.52;85.95;102174.03;5026048;28;20044;-74
2024/03/21 10:43:41;;;;;;;17.45;8.82;;;;;;;11.59;87.26;102180.38;5025081;28;20033;-74
2024/03/21 10:46:12;;;;;;;12.93;8.90;;;;;;;11.74;88.19;102186.88;5023633;28;20033;-74
2024/03/21 10:48:40;;;;;;;13.32;8.55;;;;;;;11.82;84.26;102188.81;5007730;28;21317;-74
2024/03/21 10:51:15;;;;;;;12.38;7.95;;;;;;;11.79;83.97;102187.31;5024702;28;20025;-74
2024/03/21 10:53:57;;;;;;;11.43;8.50;;;;;;;11.88;84.58;102196.94;5026152;28;20029;-74
2024/03/21 10:56:31;;;;;;;14.65;8.65;;;;;;;12.02;84.18;102195.78;5030527;28;20026;-73
2024/03/21 10:58:57;;;;;;;12.98;8.50;;;;;;;12.37;82.67;102191.88;5027698;28;20041;-74
2024/03/21 11:01:37;;;;;;;11.77;8.02;;;;;;;12.35;82.21;102185.19;5028496;28;20029;-74
2024/03/21 11:04:04;;;;;;;16.67;8.27;;;;;;;12.41;81.62;102189.84;5009445;28;20667;-74
2024/03/21 11:06:32;;;;;;;11.30;7.63;;;;;;;12.56;82.76;102187.69;5024996;28;20088;-74
2024/03/21 11:08:58;;;;;;;15.23;8.50;;;;;;;12.57;80.33;102189.34;5029082;28;20033;-73